Time;durP1;ratioP1;P1;durP2;ratioP2;P2;SDS_P1;SDS_P2;PMS_P1;PMS_P2;Temp;Humidity;BMP_temperature;BMP_pressure;BME280_temperature;BME280_humidity;BME280_pressure;Samples;Min_cycle;Max_cycle;Signal;HPM_P1;HPM_P2
2023/09/22 00:02:10;;;;;;;2.00;0.80;;;11.80;99.90;;;;;;5035191;28;20230;-84
2023/09/22 00:04:36;;;;;;;3.37;0.80;;;11.70;99.90;;;;;;5018753;28;20233;-85
2023/09/22 00:07:01;;;;;;;2.50;0.77;;;11.60;99.90;;;;;;5036105;28;20166;-85
2023/09/22 00:09:27;;;;;;;3.57;1.30;;;11.60;99.90;;;;;;5018745;28;20174;-84
2023/09/22 00:11:53;;;;;;;3.63;1.13;;;11.60;99.90;;;;;;5035498;28;20640;-84
2023/09/22 00:14:18;;;;;;;2.33;1.13;;;11.50;99.90;;;;;;5034622;28;20267;-82
2023/09/22 00:16:44;;;;;;;2.97;1.20;;;11.20;99.90;;;;;;5033461;28;20204;-81
2023/09/22 00:19:10;;;;;;;5.10;1.50;;;11.20;99.90;;;;;;5015908;28;20766;-83
2023/09/22 00:21:36;;;;;;;5.63;1.40;;;11.10;99.90;;;;;;5033272;28;20165;-82
2023/09/22 00:24:02;;;;;;;5.60;1.40;;;11.10;99.90;;;;;;5033668;28;20176;-83
2023/09/22 00:26:28;;;;;;;2.10;1.40;;;11.30;99.90;;;;;;5033255;28;20312;-84
2023/09/22 00:28:54;;;;;;;4.47;1.13;;;11.20;99.90;;;;;;5033056;28;20715;-84
2023/09/22 00:31:19;;;;;;;6.13;2.10;;;11.20;99.90;;;;;;5033442;28;20701;-83
2023/09/22 00:33:45;;;;;;;5.67;1.60;;;11.20;99.90;;;;;;5033086;28;20496;-82
2023/09/22 00:36:11;;;;;;;4.73;1.50;;;11.10;99.90;;;;;;5015016;28;20663;-80
2023/09/22 00:38:36;;;;;;;3.57;1.30;;;12.10;99.90;;;;;;5032959;28;20222;-80
2023/09/22 00:41:02;;;;;;;3.13;1.30;;;11.20;99.90;;;;;;5032908;28;20244;-83
2023/09/22 00:43:29;;;;;;;5.93;1.70;;;;;;;;;;5032921;28;20637;-83
2023/09/22 00:45:55;;;;;;;2.23;1.20;;;11.30;99.90;;;;;;5032901;28;20634;-82
2023/09/22 00:48:26;;;;;;;2.43;1.13;;;11.30;99.90;;;;;;5032772;28;20227;-83
2023/09/22 00:50:55;;;;;;;3.00;1.20;;;11.20;99.90;;;;;;5032769;28;20281;-83
2023/09/22 00:53:25;;;;;;;4.27;1.10;;;11.20;99.90;;;;;;5032654;28;20185;-84
2023/09/22 00:55:52;;;;;;;2.87;0.97;;;11.30;99.90;;;;;;5032643;28;20182;-82
2023/09/22 00:58:18;;;;;;;3.60;0.90;;;10.90;99.90;;;;;;5032262;28;20236;-84
2023/09/22 01:00:50;;;;;;;2.90;0.90;;;11.00;99.90;;;;;;5032654;28;20166;-83
2023/09/22 01:03:16;;;;;;;2.47;1.17;;;8.70;99.90;;;;;;5032542;28;20170;-83
2023/09/22 01:05:43;;;;;;;5.57;1.07;;;11.10;99.90;;;;;;5014759;28;20225;-83
2023/09/22 01:08:08;;;;;;;3.70;1.07;;;10.90;99.90;;;;;;5032582;28;20182;-83
2023/09/22 01:10:38;;;;;;;4.83;1.17;;;11.00;99.90;;;;;;5032193;28;20177;-83
2023/09/22 01:13:05;;;;;;;2.50;1.17;;;10.90;99.90;;;;;;5032419;28;20172;-84
2023/09/22 01:15:35;;;;;;;3.57;1.33;;;11.10;99.90;;;;;;5032222;28;20681;-84
2023/09/22 01:18:02;;;;;;;3.73;1.23;;;11.10;99.90;;;;;;5032193;28;20221;-83
2023/09/22 01:20:27;;;;;;;2.93;1.43;;;11.10;99.90;;;;;;5032032;28;20177;-83
2023/09/22 01:22:53;;;;;;;3.07;1.50;;;11.30;99.90;;;;;;5032063;28;20268;-82
2023/09/22 01:25:18;;;;;;;8.57;1.30;;;11.10;99.90;;;;;;5031980;28;20170;-83
2023/09/22 01:27:44;;;;;;;3.63;1.00;;;11.20;99.90;;;;;;5010710;28;20337;-82
2023/09/22 01:30:10;;;;;;;2.57;1.10;;;11.20;99.90;;;;;;5010516;28;20182;-83
2023/09/22 01:32:38;;;;;;;6.83;0.90;;;11.20;99.90;;;;;;5012364;28;20698;-83
2023/09/22 01:35:07;;;;;;;1.10;0.60;;;11.20;99.90;;;;;;5012147;28;20170;-82
2023/09/22 01:37:45;;;;;;;2.50;0.77;;;11.20;99.90;;;;;;5012114;28;20199;-84
2023/09/22 01:40:14;;;;;;;2.83;0.83;;;11.10;99.90;;;;;;5012207;28;20213;-82
2023/09/22 01:42:39;;;;;;;1.03;0.60;;;11.50;99.90;;;;;;5012014;28;20369;-80
2023/09/22 01:45:05;;;;;;;2.03;0.70;;;11.20;99.90;;;;;;5011892;28;20689;-79
2023/09/22 01:47:33;;;;;;;2.47;1.13;;;11.10;99.90;;;;;;5012057;28;20265;-79
2023/09/22 01:49:59;;;;;;;4.77;1.40;;;10.80;99.90;;;;;;5011773;28;20663;-78
2023/09/22 01:52:25;;;;;;;4.17;1.30;;;;;;;;;;5011604;28;20178;-79
2023/09/22 01:54:51;;;;;;;6.10;1.60;;;10.60;99.90;;;;;;5011710;28;20622;-79
2023/09/22 01:57:19;;;;;;;3.00;1.50;;;10.60;99.90;;;;;;5011608;28;20186;-78
2023/09/22 01:59:45;;;;;;;6.47;1.83;;;10.90;99.90;;;;;;5011602;28;20353;-78
2023/09/22 02:02:10;;;;;;;5.47;1.57;;;10.60;99.90;;;;;;5009404;28;20253;-82
2023/09/22 02:04:36;;;;;;;3.17;1.47;;;10.50;99.90;;;;;;5014144;28;20183;-82
2023/09/22 02:07:03;;;;;;;3.53;1.40;;;10.60;99.90;;;;;;4991957;28;20181;-80
2023/09/22 02:09:28;;;;;;;3.00;1.33;;;10.70;99.90;;;;;;5010672;28;20205;-82
2023/09/22 02:11:54;;;;;;;4.27;1.30;;;10.50;99.90;;;;;;5011555;28;20642;-80
2023/09/22 02:14:19;;;;;;;1.83;1.30;;;10.50;99.90;;;;;;5011442;28;20640;-81
2023/09/22 02:16:45;;;;;;;3.53;1.20;;;10.70;99.90;;;;;;5011326;28;20174;-82
2023/09/22 02:19:11;;;;;;;3.33;1.00;;;10.60;99.90;;;;;;5011229;28;20222;-83
2023/09/22 02:21:37;;;;;;;3.33;1.03;;;;;;;;;;5011149;28;20261;-80
2023/09/22 02:24:03;;;;;;;2.17;1.03;;;10.50;99.90;;;;;;5011286;28;20185;-82
2023/09/22 02:26:29;;;;;;;2.27;1.10;;;10.40;99.90;;;;;;5009800;28;20273;-82
2023/09/22 02:28:55;;;;;;;2.30;0.93;;;;;;;;;;5011086;28;20210;-83
2023/09/22 02:31:21;;;;;;;3.00;1.00;;;10.50;99.90;;;;;;5011167;28;20591;-81
2023/09/22 02:33:48;;;;;;;3.40;1.07;;;10.60;99.90;;;;;;5009928;28;20183;-80
2023/09/22 02:36:14;;;;;;;3.40;1.10;;;10.20;99.90;;;;;;5009912;28;20198;-81
2023/09/22 02:38:40;;;;;;;3.83;0.87;;;10.30;99.90;;;;;;5009649;28;20221;-82
2023/09/22 02:41:06;;;;;;;3.00;1.03;;;10.20;99.90;;;;;;5011284;28;20177;-82
2023/09/22 02:43:32;;;;;;;3.03;1.10;;;10.00;99.90;;;;;;5014753;28;20166;-82
2023/09/22 02:46:01;;;;;;;1.67;0.80;;;10.10;99.90;;;;;;5015118;28;20174;-81
2023/09/22 02:48:27;;;;;;;1.67;0.90;;;10.10;99.90;;;;;;5015151;28;20656;-82
2023/09/22 02:50:52;;;;;;;3.13;0.70;;;10.10;99.90;;;;;;5015141;28;20185;-85
2023/09/22 02:53:18;;;;;;;2.60;0.97;;;9.90;99.90;;;;;;5015116;28;20209;-83
2023/09/22 02:55:43;;;;;;;2.50;0.87;;;9.90;99.90;;;;;;5015097;28;20972;-83
2023/09/22 02:58:09;;;;;;;5.73;0.90;;;;;;;;;;4996332;28;20218;-85
2023/09/22 03:00:35;;;;;;;1.30;0.70;;;9.70;99.90;;;;;;5014948;28;20166;-84
2023/09/22 03:03:01;;;;;;;3.40;0.90;;;9.80;99.90;;;;;;5014848;28;20178;-84
2023/09/22 03:05:26;;;;;;;1.27;0.67;;;8.80;99.90;;;;;;5015064;28;20264;-83
2023/09/22 03:07:52;;;;;;;2.77;1.00;;;9.70;99.90;;;;;;5015202;28;20174;-82
2023/09/22 03:10:18;;;;;;;4.10;1.00;;;10.00;99.90;;;;;;5013629;28;20609;-83
2023/09/22 03:12:44;;;;;;;2.63;0.67;;;9.70;99.90;;;;;;5013785;28;20175;-85
2023/09/22 03:15:11;;;;;;;3.77;1.10;;;9.80;99.90;;;;;;5013480;28;20175;-83
2023/09/22 03:17:38;;;;;;;4.73;0.73;;;9.70;99.90;;;;;;5013298;28;20175;-82
2023/09/22 03:20:12;;;;;;;2.13;0.70;;;9.70;99.90;;;;;;5013579;28;20174;-83
2023/09/22 03:22:38;;;;;;;3.33;1.00;;;9.70;99.90;;;;;;5013344;28;20182;-81
2023/09/22 03:25:05;;;;;;;0.63;0.53;;;9.50;99.90;;;;;;5014709;28;20630;-83
2023/09/22 03:27:34;;;;;;;4.40;0.90;;;7.00;99.90;;;;;;5013112;28;20222;-85
2023/09/22 03:30:05;;;;;;;1.70;0.80;;;9.60;99.90;;;;;;5014418;28;20174;-85
2023/09/22 03:32:32;;;;;;;1.50;0.63;;;9.50;99.90;;;;;;5014435;28;20163;-84
2023/09/22 03:34:57;;;;;;;2.50;1.10;;;9.60;99.90;;;;;;5013085;28;20182;-87
2023/09/22 03:37:27;;;;;;;2.67;1.00;;;9.70;99.90;;;;;;5013314;28;20269;-86
2023/09/22 03:39:54;;;;;;;2.37;0.90;;;9.60;99.90;;;;;;5014828;28;20192;-86
2023/09/22 03:42:20;;;;;;;2.40;1.23;;;9.60;99.90;;;;;;5014318;28;20175;-80
2023/09/22 03:44:46;;;;;;;4.53;1.10;;;9.20;99.90;;;;;;5014132;28;20205;-82
2023/09/22 03:47:12;;;;;;;2.20;1.00;;;9.50;99.90;;;;;;5014254;28;20170;-80
2023/09/22 03:49:38;;;;;;;2.13;0.90;;;9.60;99.90;;;;;;5014104;28;20178;-81
2023/09/22 03:52:04;;;;;;;4.37;1.03;;;9.50;99.90;;;;;;5013731;28;20668;-84
2023/09/22 03:54:30;;;;;;;3.13;0.60;;;9.60;99.90;;;;;;5013941;28;20178;-84
2023/09/22 03:56:56;;;;;;;2.70;0.70;;;9.50;99.90;;;;;;5014085;28;20517;-85
2023/09/22 03:59:22;;;;;;;1.20;0.53;;;9.40;99.90;;;;;;5013791;28;20636;-84
2023/09/22 04:01:47;;;;;;;2.53;0.87;;;9.30;99.90;;;;;;5012817;28;20181;-82
2023/09/22 04:04:14;;;;;;;6.33;0.90;;;9.50;99.90;;;;;;5014043;28;20249;-84
2023/09/22 04:06:40;;;;;;;2.57;0.80;;;9.60;99.90;;;;;;5012598;28;20183;-84
2023/09/22 04:09:07;;;;;;;3.33;0.80;;;9.60;99.90;;;;;;5013958;28;20499;-82
2023/09/22 04:11:34;;;;;;;1.97;0.77;;;9.60;99.90;;;;;;5014083;28;20185;-83
2023/09/22 04:13:59;;;;;;;3.23;0.67;;;9.70;99.90;;;;;;5014013;28;20674;-83
2023/09/22 04:16:25;;;;;;;3.40;0.87;;;9.50;99.90;;;;;;5013697;28;20206;-83
2023/09/22 04:18:54;;;;;;;3.17;0.80;;;9.60;99.90;;;;;;5013758;28;20206;-80
2023/09/22 04:21:22;;;;;;;2.13;1.00;;;9.40;99.90;;;;;;5014044;28;20231;-84
2023/09/22 04:23:57;;;;;;;3.10;1.20;;;9.40;99.90;;;;;;5013679;28;20189;-87
2023/09/22 04:26:29;;;;;;;1.80;1.23;;;9.40;99.90;;;;;;5019688;28;20221;-83
2023/09/22 04:28:56;;;;;;;2.13;1.30;;;9.20;99.90;;;;;;5033185;28;20197;-83
2023/09/22 04:31:23;;;;;;;2.90;1.47;;;9.60;99.90;;;;;;5033137;28;20166;-80
2023/09/22 04:33:51;;;;;;;5.17;1.67;;;9.10;99.90;;;;;;5015484;28;20189;-83
2023/09/22 04:36:23;;;;;;;4.63;1.57;;;9.10;99.90;;;;;;5015359;28;20178;-83
2023/09/22 04:38:50;;;;;;;2.20;1.40;;;9.30;99.90;;;;;;5032792;28;20546;-82
2023/09/22 04:41:19;;;;;;;3.40;1.50;;;9.10;99.90;;;;;;5033177;28;20256;-81
2023/09/22 04:43:46;;;;;;;4.07;1.70;;;9.10;99.90;;;;;;5033116;28;20178;-82
2023/09/22 04:46:12;;;;;;;4.40;1.67;;;9.20;99.90;;;;;;5030800;28;20264;-83
2023/09/22 04:48:38;;;;;;;3.13;1.50;;;9.20;99.90;;;;;;5032571;28;20204;-81
2023/09/22 04:51:06;;;;;;;4.17;1.60;;;9.20;99.90;;;;;;5032739;28;20649;-81
2023/09/22 04:53:32;;;;;;;5.00;1.83;;;9.10;99.90;;;;;;5014762;28;20178;-80
2023/09/22 04:56:04;;;;;;;5.10;1.70;;;9.10;99.90;;;;;;5032943;28;20261;-82
2023/09/22 04:58:33;;;;;;;2.90;1.70;;;9.10;99.90;;;;;;5032245;28;20677;-83
2023/09/22 05:01:01;;;;;;;3.00;1.60;;;9.20;99.90;;;;;;5031094;28;20204;-83
2023/09/22 05:03:28;;;;;;;5.77;1.70;;;9.00;99.90;;;;;;5032335;28;20185;-84
2023/09/22 05:05:54;;;;;;;6.93;1.40;;;9.00;99.90;;;;;;5013962;28;20264;-84
2023/09/22 05:08:20;;;;;;;4.60;1.60;;;8.90;99.90;;;;;;5032787;28;20174;-83
2023/09/22 05:10:50;;;;;;;5.23;1.70;;;9.10;99.90;;;;;;5032325;28;20174;-83
2023/09/22 05:13:16;;;;;;;5.70;1.63;;;8.90;99.90;;;;;;5032584;28;20700;-83
2023/09/22 05:15:43;;;;;;;3.97;1.50;;;8.90;99.90;;;;;;5032503;28;20255;-83
2023/09/22 05:18:15;;;;;;;4.20;1.67;;;8.90;99.90;;;;;;5032324;28;20360;-85
2023/09/22 05:20:41;;;;;;;7.77;1.80;;;8.90;99.90;;;;;;5032341;28;20166;-85
2023/09/22 05:23:08;;;;;;;2.37;1.23;;;8.60;99.90;;;;;;5032236;28;20671;-85
2023/09/22 05:25:42;;;;;;;2.50;1.60;;;8.60;99.90;;;;;;5032336;28;20178;-83
2023/09/22 05:28:10;;;;;;;4.63;1.40;;;;;;;;;;5031982;28;20657;-86
2023/09/22 05:30:40;;;;;;;3.30;1.60;;;8.60;99.90;;;;;;5014485;28;20283;-85
2023/09/22 05:33:07;;;;;;;2.93;1.70;;;8.70;99.90;;;;;;5032232;28;20166;-86
2023/09/22 05:35:37;;;;;;;3.47;1.73;;;8.60;99.90;;;;;;5032352;28;20201;-81
2023/09/22 05:38:03;;;;;;;3.90;1.50;;;8.80;99.90;;;;;;5031954;28;20281;-81
2023/09/22 05:40:32;;;;;;;4.10;1.87;;;8.70;99.90;;;;;;5031990;28;20248;-82
2023/09/22 05:42:58;;;;;;;2.80;1.37;;;8.90;99.90;;;;;;5031881;28;20170;-81
2023/09/22 05:45:25;;;;;;;2.50;1.23;;;8.90;99.90;;;;;;5031891;28;20170;-81
2023/09/22 05:47:51;;;;;;;4.70;1.40;;;9.00;99.90;;;;;;5014659;28;20189;-80
2023/09/22 05:50:17;;;;;;;3.13;1.30;;;8.70;99.90;;;;;;5031742;28;20652;-80
2023/09/22 05:52:42;;;;;;;3.50;1.20;;;8.60;99.90;;;;;;5031666;28;20174;-82
2023/09/22 05:55:08;;;;;;;5.13;1.87;;;8.90;99.90;;;;;;5014163;28;20216;-79
2023/09/22 05:57:34;;;;;;;2.37;1.23;;;10.80;99.90;;;;;;5031734;28;20189;-83
2023/09/22 06:00:00;;;;;;;5.67;1.57;;;8.80;99.90;;;;;;5031690;28;20186;-82
2023/09/22 06:02:26;;;;;;;3.63;1.30;;;8.80;99.90;;;;;;5031894;28;20170;-80
2023/09/22 06:04:55;;;;;;;5.30;1.63;;;9.00;99.90;;;;;;5031617;28;20182;-78
2023/09/22 06:07:22;;;;;;;1.83;1.30;;;8.80;99.90;;;;;;5031319;28;20644;-80
2023/09/22 06:09:48;;;;;;;3.67;1.60;;;9.40;99.90;;;;;;5031264;28;20178;-80
2023/09/22 06:12:13;;;;;;;7.23;1.93;;;9.00;99.90;;;;;;5031305;28;20228;-79
2023/09/22 06:14:39;;;;;;;6.37;2.27;;;9.20;99.90;;;;;;5031264;28;20220;-80
2023/09/22 06:17:05;;;;;;;5.20;2.03;;;9.40;99.90;;;;;;5013086;28;20174;-77
2023/09/22 06:19:31;;;;;;;6.70;1.70;;;9.10;99.90;;;;;;5032321;28;20209;-84
2023/09/22 06:21:57;;;;;;;3.63;1.70;;;9.20;99.90;;;;;;5014268;28;20205;-82
2023/09/22 06:24:23;;;;;;;4.07;2.10;;;9.40;99.90;;;;;;5015420;28;20178;-82
2023/09/22 06:26:50;;;;;;;3.63;1.80;;;9.30;99.90;;;;;;5031734;28;20279;-83
2023/09/22 06:29:17;;;;;;;4.80;2.17;;;9.40;99.90;;;;;;5031185;28;20166;-82
2023/09/22 06:31:43;;;;;;;4.67;1.90;;;9.60;99.90;;;;;;5030943;28;20182;-77
2023/09/22 06:34:09;;;;;;;7.17;2.50;;;;;;;;;;5031070;28;20162;-78
2023/09/22 06:36:36;;;;;;;4.07;2.00;;;;;;;;;;5013414;28;20184;-82
2023/09/22 06:39:08;;;;;;;9.20;2.27;;;;;;;;;;5030985;28;20245;-80
2023/09/22 06:41:35;;;;;;;5.17;1.83;;;9.80;99.90;;;;;;5031422;28;20572;-87
2023/09/22 06:44:02;;;;;;;8.80;1.90;;;9.70;99.90;;;;;;5031360;28;20547;-80
2023/09/22 06:46:28;;;;;;;5.70;1.87;;;9.80;99.90;;;;;;5030897;28;20181;-82
2023/09/22 06:48:55;;;;;;;2.77;1.40;;;9.90;99.90;;;;;;5030833;28;20625;-83
2023/09/22 06:51:21;;;;;;;3.60;1.70;;;9.80;99.90;;;;;;5031144;28;20174;-85
2023/09/22 06:53:47;;;;;;;5.20;1.63;;;10.10;99.90;;;;;;5013780;28;20188;-84
2023/09/22 06:56:13;;;;;;;4.60;1.70;;;10.00;99.90;;;;;;5031529;28;20237;-76
2023/09/22 06:58:40;;;;;;;4.50;1.80;;;10.20;99.90;;;;;;5031253;28;20719;-81
2023/09/22 07:01:13;;;;;;;7.23;1.93;;;10.30;99.90;;;;;;5029604;28;20197;-83
2023/09/22 07:03:43;;;;;;;5.80;1.40;;;10.70;99.90;;;;;;5030236;28;20178;-78
2023/09/22 07:06:14;;;;;;;4.87;1.40;;;10.60;99.90;;;;;;5028979;28;20170;-78
2023/09/22 07:08:41;;;;;;;3.20;1.57;;;10.80;99.90;;;;;;5030145;28;20716;-78
2023/09/22 07:11:08;;;;;;;5.23;1.53;;;10.90;99.90;;;;;;5030422;28;20192;-78
2023/09/22 07:13:37;;;;;;;7.33;1.80;;;11.50;99.90;;;;;;5030515;28;20197;-77
2023/09/22 07:16:04;;;;;;;4.03;1.33;;;11.20;99.90;;;;;;5030520;28;20177;-79
2023/09/22 07:18:29;;;;;;;5.07;1.80;;;11.30;99.90;;;;;;5030328;28;20303;-79
2023/09/22 07:20:56;;;;;;;3.30;1.60;;;11.50;99.90;;;;;;5029959;28;20178;-80
2023/09/22 07:23:23;;;;;;;4.50;1.47;;;11.40;99.90;;;;;;5030274;28;20542;-77
2023/09/22 07:26:06;;;;;;;4.17;1.70;;;11.60;99.90;;;;;;5029607;28;20170;-88
2023/09/22 07:28:34;;;;;;;2.97;1.23;;;11.80;99.90;;;;;;5032786;28;20194;-87
2023/09/22 07:30:59;;;;;;;3.37;1.27;;;12.00;99.90;;;;;;5034778;28;20182;-84
2023/09/22 07:33:32;;;;;;;3.33;1.27;;;12.20;99.90;;;;;;5034908;28;20189;-86
2023/09/22 07:35:58;;;;;;;4.53;1.30;;;12.30;99.90;;;;;;5033796;28;20181;-82
2023/09/22 07:38:24;;;;;;;6.87;1.33;;;12.50;99.90;;;;;;5034293;28;20253;-86
2023/09/22 07:40:51;;;;;;;3.27;1.10;;;12.50;99.90;;;;;;5016502;28;20227;-85
2023/09/22 07:43:17;;;;;;;5.70;1.17;;;12.90;99.90;;;;;;5033454;28;20186;-83
2023/09/22 07:45:42;;;;;;;4.33;0.80;;;13.00;99.90;;;;;;5039237;28;20679;-84
2023/09/22 07:48:08;;;;;;;2.67;0.82;;;13.30;99.90;;;;;;5035496;28;20197;-93
2023/09/22 07:50:35;;;;;;;4.40;1.03;;;13.40;99.90;;;;;;5016213;28;20601;-83
2023/09/22 07:53:02;;;;;;;4.20;1.00;;;13.80;99.90;;;;;;5016948;28;20173;-86
2023/09/22 07:55:28;;;;;;;3.60;1.07;;;13.70;99.90;;;;;;5034484;28;20197;-86
2023/09/22 07:57:54;;;;;;;5.53;1.00;;;13.70;99.90;;;;;;5034301;28;20170;-85
2023/09/22 08:00:20;;;;;;;3.72;1.30;;;13.80;99.90;;;;;;5016478;28;20239;-83
2023/09/22 08:02:46;;;;;;;3.88;1.10;;;13.90;99.90;;;;;;5016413;28;20185;-81
2023/09/22 08:05:15;;;;;;;6.45;1.30;;;13.90;99.90;;;;;;5016688;28;20181;-85
2023/09/22 08:07:49;;;;;;;5.10;1.20;;;13.90;99.90;;;;;;5033529;28;20200;-82
2023/09/22 08:10:15;;;;;;;6.20;1.10;;;14.00;99.90;;;;;;5033466;28;20200;-81
2023/09/22 08:12:41;;;;;;;4.35;0.88;;;14.10;99.90;;;;;;5033571;28;20637;-85
2023/09/22 08:15:08;;;;;;;5.60;1.05;;;14.30;99.90;;;;;;5034119;28;20181;-82
2023/09/22 08:17:34;;;;;;;6.00;1.02;;;14.40;99.90;;;;;;5033128;28;20166;-82
2023/09/22 08:20:00;;;;;;;4.63;1.23;;;14.40;99.90;;;;;;5032782;28;20206;-83
2023/09/22 08:22:29;;;;;;;8.43;1.30;;;14.50;99.90;;;;;;5032051;28;20808;-83
2023/09/22 08:24:55;;;;;;;8.57;1.17;;;14.60;99.90;;;;;;4999620;28;20174;-82
2023/09/22 08:27:20;;;;;;;3.38;1.17;;;14.70;99.90;;;;;;5032879;28;20244;-83
2023/09/22 08:29:50;;;;;;;8.95;1.10;;;14.70;99.90;;;;;;5032587;28;20659;-83
2023/09/22 08:32:16;;;;;;;2.72;0.90;;;14.80;99.90;;;;;;5015899;28;20205;-81
2023/09/22 08:34:42;;;;;;;6.55;1.00;;;14.90;99.90;;;;;;5015516;28;20170;-81
2023/09/22 08:37:07;;;;;;;5.55;1.05;;;15.00;99.90;;;;;;5032929;28;20166;-80
2023/09/22 08:39:33;;;;;;;3.92;1.27;;;15.00;99.90;;;;;;5032606;28;20221;-80
2023/09/22 08:41:59;;;;;;;5.55;1.27;;;15.00;99.90;;;;;;5032905;28;20177;-79
2023/09/22 08:44:30;;;;;;;4.93;1.50;;;14.90;99.90;;;;;;5014722;28;20268;-78
2023/09/22 08:46:57;;;;;;;5.57;1.08;;;14.90;99.90;;;;;;5032914;28;20174;-81
2023/09/22 08:49:22;;;;;;;5.00;1.10;;;14.80;99.90;;;;;;5033360;28;20174;-80
2023/09/22 08:51:49;;;;;;;7.82;1.00;;;14.80;99.90;;;;;;5032686;28;20532;-81
2023/09/22 08:54:15;;;;;;;4.00;1.25;;;14.90;99.90;;;;;;5033233;28;20585;-84
2023/09/22 08:56:40;;;;;;;3.63;1.10;;;14.90;99.90;;;;;;5032597;28;20166;-80
2023/09/22 08:59:09;;;;;;;1.73;0.70;;;14.90;99.90;;;;;;5032193;28;20229;-82
2023/09/22 09:01:37;;;;;;;6.40;1.30;;;15.10;99.90;;;;;;5031849;28;20176;-81
2023/09/22 09:04:32;;;;;;;7.60;1.10;;;15.20;99.90;;;;;;5015298;28;20261;-83
2023/09/22 09:06:58;;;;;;;6.40;1.42;;;15.10;99.90;;;;;;5037132;28;20174;-86
2023/09/22 09:09:24;;;;;;;5.53;1.35;;;15.20;99.90;;;;;;5047080;28;20177;-86
2023/09/22 09:12:03;;;;;;;5.80;1.23;;;16.50;99.90;;;;;;5054026;28;20533;-82
2023/09/22 09:14:29;;;;;;;9.85;1.15;;;15.30;99.90;;;;;;5006977;28;20238;-81
2023/09/22 09:16:58;;;;;;;6.55;0.98;;;15.40;99.90;;;;;;5032428;28;20185;-82
2023/09/22 09:19:26;;;;;;;5.40;0.90;;;15.50;99.90;;;;;;5031831;28;20213;-79
2023/09/22 09:22:11;;;;;;;4.93;0.82;;;15.60;99.90;;;;;;5032481;28;20159;-82
2023/09/22 09:24:37;;;;;;;6.75;0.80;;;15.60;99.90;;;;;;5032558;28;20346;-84
2023/09/22 09:27:19;;;;;;;5.25;1.00;;;15.60;99.90;;;;;;5032778;28;20297;-82
2023/09/22 09:29:53;;;;;;;4.82;0.73;;;15.70;99.90;;;;;;5015540;28;20228;-79
2023/09/22 09:32:22;;;;;;;7.80;0.90;;;15.70;99.90;;;;;;5032228;28;20253;-80
2023/09/22 09:34:48;;;;;;;3.65;1.02;;;15.70;99.90;;;;;;5031710;28;20300;-78
2023/09/22 09:37:14;;;;;;;3.33;1.00;;;15.80;99.90;;;;;;5032204;28;20308;-81
2023/09/22 09:39:58;;;;;;;6.07;0.90;;;15.90;99.90;;;;;;5032034;28;20316;-82
2023/09/22 09:42:25;;;;;;;8.85;1.00;;;16.10;99.90;;;;;;5031599;28;20176;-83
2023/09/22 09:44:56;;;;;;;7.78;1.13;;;16.30;99.90;;;;;;5047640;28;20177;-82
2023/09/22 09:47:26;;;;;;;5.30;0.85;;;16.40;99.90;;;;;;5018870;28;20264;-77
2023/09/22 09:49:54;;;;;;;5.57;0.90;;;16.60;99.90;;;;;;5031651;28;20308;-75
2023/09/22 09:52:29;;;;;;;6.32;1.27;;;16.80;99.90;;;;;;5012552;28;20183;-80
2023/09/22 09:55:08;;;;;;;6.72;1.00;;;16.70;99.90;;;;;;5024248;28;20539;-81
2023/09/22 09:57:36;;;;;;;4.47;1.10;;;16.80;99.90;;;;;;5010481;28;20515;-80
2023/09/22 10:00:12;;;;;;;6.72;1.10;;;17.10;99.90;;;;;;5021738;28;20279;-81
2023/09/22 10:02:44;;;;;;;7.38;1.00;;;17.10;99.90;;;;;;5031557;28;20215;-82
2023/09/22 10:05:23;;;;;;;5.85;0.90;;;17.00;99.90;;;;;;5030097;28;20178;-82
2023/09/22 10:07:50;;;;;;;5.50;0.90;;;16.90;99.90;;;;;;5030137;28;20178;-83
2023/09/22 10:10:19;;;;;;;6.10;0.90;;;16.90;99.90;;;;;;5011635;28;20654;-81
2023/09/22 10:12:45;;;;;;;5.13;1.00;;;17.50;99.90;;;;;;5011209;28;20265;-81
2023/09/22 10:15:12;;;;;;;7.13;0.90;;;17.60;99.90;;;;;;5030111;28;20184;-82
2023/09/22 10:17:38;;;;;;;5.50;1.08;;;18.20;99.90;;;;;;5030464;28;20197;-83
2023/09/22 10:20:06;;;;;;;9.52;0.90;;;18.90;99.90;;;;;;5013306;28;20216;-81
2023/09/22 10:22:33;;;;;;;3.60;1.15;;;18.70;1.00;;;;;;5014135;28;20236;-80
2023/09/22 10:25:14;;;;;;;6.65;1.10;;;18.50;1.00;;;;;;5031340;28;20170;-80
2023/09/22 10:28:00;;;;;;;5.30;1.20;;;18.90;1.00;;;;;;5013342;28;20283;-81
2023/09/22 10:30:45;;;;;;;3.97;1.00;;;19.00;94.60;;;;;;5030735;28;20174;-81
2023/09/22 10:33:23;;;;;;;5.78;0.93;;;19.10;1.00;;;;;;5030909;28;20174;-82
2023/09/22 10:35:49;;;;;;;4.10;0.85;;;17.50;1.00;;;;;;5030872;28;20537;-81
2023/09/22 10:38:15;;;;;;;6.63;1.13;;;19.50;1.00;;;;;;5030438;28;20218;-81
2023/09/22 10:41:00;;;;;;;4.55;1.10;;;19.40;99.90;;;;;;5031016;28;20722;-79
2023/09/22 10:43:32;;;;;;;6.80;0.95;;;19.50;1.00;;;;;;5032686;28;20185;-82
2023/09/22 10:45:59;;;;;;;3.65;1.08;;;19.30;1.00;;;;;;5057031;28;20178;-80
2023/09/22 10:48:31;;;;;;;7.35;1.00;;;19.40;99.90;;;;;;5038147;28;20240;-77
2023/09/22 10:50:57;;;;;;;3.67;0.82;;;20.10;99.90;;;;;;5038163;28;20176;-76
2023/09/22 10:53:22;;;;;;;4.53;1.20;;;19.90;99.90;;;;;;5038428;28;20626;-78
2023/09/22 10:55:49;;;;;;;5.15;1.00;;;19.60;1.00;;;;;;5036231;28;20489;-76
2023/09/22 10:58:21;;;;;;;5.32;0.90;;;20.00;1.00;;;;;;5013358;28;20208;-75
2023/09/22 11:00:56;;;;;;;4.68;0.98;;;19.90;99.90;;;;;;5030258;28;20640;-76
2023/09/22 11:03:23;;;;;;;6.05;1.38;;;21.20;1.00;;;;;;5032530;28;20177;-76
2023/09/22 11:06:07;;;;;;;3.85;0.90;;;20.70;99.90;;;;;;5034243;28;20256;-76
2023/09/22 11:08:34;;;;;;;4.07;0.98;;;21.30;99.90;;;;;;5033979;28;20227;-76
2023/09/22 11:11:00;;;;;;;4.65;1.02;;;22.20;99.90;;;;;;5034390;28;20166;-76
2023/09/22 11:13:27;;;;;;;2.92;0.65;;;22.90;75.30;;;;;;5034829;28;20549;-77
2023/09/22 11:15:56;;;;;;;2.30;0.80;;;23.30;1.00;;;;;;5035615;28;20173;-76
2023/09/22 11:18:33;;;;;;;4.57;1.25;;;22.70;1.00;;;;;;5037928;28;20279;-79
2023/09/22 11:21:08;;;;;;;4.85;1.20;;;21.30;1.00;;;;;;5036259;28;20272;-77
2023/09/22 11:23:35;;;;;;;5.07;0.85;;;22.20;1.00;;;;;;5037647;28;20620;-77
2023/09/22 11:26:07;;;;;;;2.42;1.00;;;22.60;99.90;;;;;;5055774;28;20267;-78
2023/09/22 11:28:33;;;;;;;2.95;0.90;;;25.10;99.90;;;;;;5058732;28;20539;-79
2023/09/22 11:31:16;;;;;;;3.55;0.65;;;23.40;1.00;;;;;;5043103;28;20256;-79
2023/09/22 11:33:43;;;;;;;3.13;0.80;;;25.00;1.00;;;;;;5017311;28;20177;-77
2023/09/22 11:36:09;;;;;;;4.40;0.82;;;22.50;1.00;;;;;;5053821;28;20181;-77
2023/09/22 11:38:39;;;;;;;4.68;0.85;;;22.40;1.00;;;;;;5041362;28;20229;-77
2023/09/22 11:41:11;;;;;;;3.67;1.05;;;22.20;1.00;;;;;;5041127;28;20170;-77
2023/09/22 11:43:37;;;;;;;2.97;1.00;;;22.20;1.00;;;;;;5055802;28;20173;-79
2023/09/22 11:46:07;;;;;;;5.47;0.75;;;22.70;1.00;;;;;;5058722;28;20173;-79
2023/09/22 11:48:56;;;;;;;7.57;0.95;;;23.00;1.00;;;;;;5043291;28;20213;-80
2023/09/22 11:51:22;;;;;;;3.28;0.82;;;23.50;1.00;;;;;;5023174;28;20190;-77
2023/09/22 11:53:48;;;;;;;2.17;0.85;;;23.40;1.00;;;;;;5037095;28;20178;-78
2023/09/22 11:56:14;;;;;;;2.55;0.80;;;23.20;99.90;;;;;;5037484;28;20612;-77
2023/09/22 11:58:40;;;;;;;2.50;0.80;;;24.30;99.90;;;;;;5038489;28;20240;-79
2023/09/22 12:01:06;;;;;;;5.93;0.88;;;24.90;99.90;;;;;;5038069;28;20265;-81
2023/09/22 12:03:34;;;;;;;1.75;0.60;;;25.20;99.90;;;;;;5036498;28;20202;-77
2023/09/22 12:06:02;;;;;;;3.78;0.85;;;25.20;14.70;;;;;;5033661;28;20655;-78
2023/09/22 12:08:29;;;;;;;1.88;0.60;;;25.00;1.00;;;;;;5033393;28;20184;-78
2023/09/22 12:11:00;;;;;;;0.80;0.52;;;24.60;1.00;;;;;;5033427;28;20174;-78
2023/09/22 12:13:26;;;;;;;1.63;0.90;;;24.30;1.00;;;;;;5033301;28;20260;-78
2023/09/22 12:15:51;;;;;;;3.47;1.00;;;24.50;1.00;;;;;;5033193;28;20566;-79
2023/09/22 12:18:17;;;;;;;2.15;0.60;;;25.10;1.00;;;;;;5033296;28;20747;-79
2023/09/22 12:20:42;;;;;;;2.65;0.80;;;24.50;1.00;;;;;;5033560;28;20228;-78
2023/09/22 12:23:08;;;;;;;3.72;0.90;;;24.00;1.00;;;;;;5033224;28;20663;-78
2023/09/22 12:25:34;;;;;;;3.10;0.80;;;23.30;1.00;;;;;;5033155;28;20174;-78
2023/09/22 12:28:00;;;;;;;3.10;0.50;;;24.00;1.00;;;;;;5033024;28;20689;-78
2023/09/22 12:30:25;;;;;;;1.98;0.98;;;24.50;1.00;;;;;;5033118;28;20185;-78
2023/09/22 12:32:51;;;;;;;2.47;0.98;;;24.10;1.00;;;;;;5033257;28;20173;-79
2023/09/22 12:35:16;;;;;;;2.95;0.70;;;24.90;1.00;;;;;;5032957;28;20465;-79
2023/09/22 12:37:42;;;;;;;1.67;0.63;;;25.20;1.00;;;;;;5033011;28;20200;-79
2023/09/22 12:40:08;;;;;;;2.42;0.70;;;25.90;1.00;;;;;;5015244;28;20691;-79
2023/09/22 12:42:33;;;;;;;3.45;0.63;;;24.20;1.00;;;;;;5032438;28;20249;-78
2023/09/22 12:44:59;;;;;;;1.95;0.70;;;24.30;1.00;;;;;;5032837;28;20181;-79
2023/09/22 12:47:25;;;;;;;2.03;0.50;;;23.60;1.00;;;;;;5032701;28;20191;-78
2023/09/22 12:49:51;;;;;;;3.42;0.85;;;23.20;1.00;;;;;;5032801;28;20204;-78
2023/09/22 12:52:17;;;;;;;2.05;0.80;;;21.60;1.00;;;;;;5032741;28;20660;-79
2023/09/22 12:54:42;;;;;;;3.47;0.75;;;21.60;1.00;;;;;;5032369;28;20178;-78
2023/09/22 12:57:08;;;;;;;3.38;1.02;;;21.70;1.00;;;;;;5032429;28;20629;-78
2023/09/22 12:59:33;;;;;;;7.68;0.80;;;20.80;1.00;;;;;;5032103;28;20237;-78